Time;durP1;ratioP1;P1;durP2;ratioP2;P2;SDS_P1;SDS_P2;PMS_P1;PMS_P2;Temp;Humidity;BMP_temperature;BMP_pressure;BME280_temperature;BME280_humidity;BME280_pressure;Samples;Min_cycle;Max_cycle;Signal;HPM_P1;HPM_P2
2022/04/16 00:00:20;;;;;;;9.20;4.10;;;;;;;13.94;58.67;100705.16;4951987;29;20036;-84
2022/04/16 00:02:46;;;;;;;8.30;4.05;;;;;;;13.91;59.22;100712.66;4948137;29;20041;-86
2022/04/16 00:05:12;;;;;;;9.07;3.90;;;;;;;13.94;58.72;100710.47;4956933;29;20138;-82
2022/04/16 00:07:38;;;;;;;11.25;4.55;;;;;;;13.95;58.97;100703.31;4944483;29;20039;-83
2022/04/16 00:10:05;;;;;;;10.05;3.70;;;;;;;13.85;59.63;100708.84;4962708;28;20087;-82
2022/04/16 00:12:31;;;;;;;9.65;3.83;;;;;;;13.74;60.20;100703.97;4947491;29;20103;-82
2022/04/16 00:14:57;;;;;;;5.72;3.90;;;;;;;13.63;60.67;100704.38;4936006;29;20484;-83
2022/04/16 00:17:22;;;;;;;7.93;4.22;;;;;;;13.44;61.49;100707.50;4950445;29;20042;-83
2022/04/16 00:19:48;;;;;;;7.45;4.15;;;;;;;13.49;61.94;100694.47;4938740;29;20043;-84
2022/04/16 00:22:14;;;;;;;10.05;4.63;;;;;;;13.47;62.02;100693.84;4958689;29;20036;-84
2022/04/16 00:24:40;;;;;;;6.95;4.20;;;;;;;13.33;62.91;100694.59;4960343;29;20384;-85
2022/04/16 00:27:10;;;;;;;8.15;3.95;;;;;;;13.42;62.74;100688.22;4948771;29;20097;-82
2022/04/16 00:29:36;;;;;;;11.32;4.70;;;;;;;13.22;63.50;100687.84;4925735;29;20048;-84
2022/04/16 00:32:30;;;;;;;8.13;4.40;;;;;;;13.05;64.21;100688.91;5057189;23;20135;-84
2022/04/16 00:34:57;;;;;;;16.55;5.43;;;;;;;13.14;63.97;100693.19;5009731;28;20030;-83
2022/04/16 00:37:23;;;;;;;13.95;5.85;;;;;;;12.84;66.00;100689.47;5010548;28;20038;-83
2022/04/16 00:39:49;;;;;;;10.43;4.40;;;;;;;12.86;66.16;100686.63;4993186;28;20065;-85
2022/04/16 00:42:17;;;;;;;10.88;4.53;;;;;;;12.87;66.35;100681.16;4984964;28;20452;-83
2022/04/16 00:44:44;;;;;;;17.85;5.05;;;;;;;12.82;66.96;100680.84;4991831;28;20014;-85
2022/04/16 00:47:12;;;;;;;8.00;4.82;;;;;;;12.67;67.94;100679.91;4992085;28;20597;-82
2022/04/16 00:50:12;;;;;;;12.50;5.10;;;;;;;12.54;69.06;100676.13;5018056;23;20072;-82
2022/04/16 00:52:41;;;;;;;9.20;4.63;;;;;;;12.56;69.17;100684.78;4963542;28;20035;-83
2022/04/16 00:55:13;;;;;;;7.28;4.25;;;;;;;12.62;68.79;100684.91;4960593;29;20067;-82
2022/04/16 00:57:43;;;;;;;6.40;4.17;;;;;;;12.59;68.69;100679.94;4958271;29;20411;-83
2022/04/16 01:00:13;;;;;;;11.18;4.57;;;;;;;12.85;67.51;100677.03;4957853;29;20347;-83
2022/04/16 01:02:40;;;;;;;10.90;4.55;;;;;;;13.08;66.25;100680.56;4966003;28;20044;-83
2022/04/16 01:05:07;;;;;;;5.97;4.10;;;;;;;12.91;67.00;100678.97;4963298;29;20027;-84
2022/04/16 01:07:34;;;;;;;8.18;4.50;;;;;;;12.78;67.70;100671.56;4960861;28;20039;-84
2022/04/16 01:10:00;;;;;;;7.43;4.65;;;;;;;12.84;67.53;100673.53;4934289;29;20036;-84
2022/04/16 01:12:28;;;;;;;8.88;4.43;;;;;;;13.02;66.16;100669.78;4958650;29;20038;-81
2022/04/16 01:14:55;;;;;;;9.52;4.50;;;;;;;12.84;66.97;100670.88;4965869;28;20037;-88
2022/04/16 01:17:21;;;;;;;10.40;4.70;;;;;;;12.61;68.20;100672.63;4973322;28;20127;-84
2022/04/16 01:19:47;;;;;;;9.55;5.00;;;;;;;12.67;67.94;100661.28;4956522;29;20106;-84
2022/04/16 01:22:14;;;;;;;13.05;5.40;;;;;;;12.60;68.00;100672.78;4965887;29;20039;-82
2022/04/16 01:24:48;;;;;;;12.02;5.07;;;;;;;12.34;69.01;100660.56;4969225;28;20034;-83
2022/04/16 01:27:18;;;;;;;10.77;4.97;;;;;;;12.41;68.97;100664.22;4985810;28;20115;-83
2022/04/16 01:29:44;;;;;;;7.45;5.13;;;;;;;12.48;68.70;100667.00;4985441;28;20432;-83
2022/04/16 01:32:10;;;;;;;9.93;4.30;;;;;;;12.46;69.07;100669.03;4969470;28;20035;-83
2022/04/16 01:34:54;;;;;;;10.13;5.10;;;;;;;12.44;69.32;100663.88;4949944;29;20031;-82
2022/04/16 01:37:22;;;;;;;12.32;5.20;;;;;;;12.55;67.73;100667.16;4974479;28;20102;-84
2022/04/16 01:39:48;;;;;;;13.13;5.03;;;;;;;12.46;67.02;100661.03;4974174;28;20051;-82
2022/04/16 01:42:15;;;;;;;9.18;4.70;;;;;;;12.35;67.02;100677.34;4966057;29;20035;-82
2022/04/16 01:44:43;;;;;;;14.77;5.15;;;;;;;12.36;66.51;100679.81;4966356;29;20046;-83
2022/04/16 01:47:10;;;;;;;8.48;5.30;;;;;;;12.51;65.91;100676.47;4966028;29;20055;-82
2022/04/16 01:49:37;;;;;;;9.80;5.20;;;;;;;12.40;65.58;100669.69;4966146;29;20087;-80
2022/04/16 01:52:03;;;;;;;6.13;4.75;;;;;;;12.33;66.03;100674.00;4967400;29;20039;-83
2022/04/16 01:54:31;;;;;;;7.93;4.55;;;;;;;12.28;66.14;100665.72;4969403;28;20035;-81
2022/04/16 01:56:56;;;;;;;5.43;3.95;;;;;;;12.34;65.70;100667.69;4979556;28;20385;-83
2022/04/16 01:59:22;;;;;;;11.85;4.95;;;;;;;12.34;65.54;100667.69;4966504;29;20071;-84
2022/04/16 02:01:48;;;;;;;8.20;4.55;;;;;;;12.64;64.04;100671.44;4966796;29;20039;-83
2022/04/16 02:04:13;;;;;;;14.10;4.78;;;;;;;12.32;65.83;100661.75;4964979;28;20404;-82
2022/04/16 02:06:39;;;;;;;9.05;4.80;;;;;;;12.48;65.25;100661.69;4970659;28;20113;-82
2022/04/16 02:09:05;;;;;;;10.88;4.68;;;;;;;12.34;66.17;100659.72;4969533;28;20039;-83
2022/04/16 02:11:30;;;;;;;9.07;5.20;;;;;;;12.09;67.42;100658.97;4990336;28;20031;-82
2022/04/16 02:13:56;;;;;;;6.70;4.80;;;;;;;12.27;66.90;100654.25;4990612;28;20205;-81
2022/04/16 02:16:21;;;;;;;11.48;4.28;;;;;;;12.14;67.01;100647.81;4995395;28;20035;-82
2022/04/16 02:18:47;;;;;;;9.30;4.88;;;;;;;12.03;68.04;100645.53;4978925;28;20040;-82
2022/04/16 02:21:16;;;;;;;16.05;5.60;;;;;;;12.22;67.13;100645.16;4978717;28;20031;-85
2022/04/16 02:23:42;;;;;;;11.65;5.15;;;;;;;12.23;67.13;100641.50;4977289;28;20031;-84
2022/04/16 02:26:14;;;;;;;9.02;5.07;;;;;;;12.16;67.25;100641.34;4954302;29;20521;-84
2022/04/16 02:28:39;;;;;;;10.57;5.20;;;;;;;12.01;68.53;100629.75;4981650;28;20039;-82
2022/04/16 02:31:05;;;;;;;13.60;5.45;;;;;;;12.17;68.11;100636.84;4964093;28;20130;-83
2022/04/16 02:33:31;;;;;;;11.55;5.72;;;;;;;12.29;67.50;100639.00;4983093;28;20035;-82
2022/04/16 02:35:57;;;;;;;8.05;5.18;;;;;;;12.36;67.33;100634.63;4970632;28;20039;-84
2022/04/16 02:38:23;;;;;;;13.88;5.57;;;;;;;12.60;66.24;100632.88;4964785;28;20041;-82
2022/04/16 02:40:49;;;;;;;9.40;5.20;;;;;;;12.22;67.36;100639.84;4983850;28;20050;-83
2022/04/16 02:43:14;;;;;;;12.93;5.68;;;;;;;12.12;67.61;100636.53;4975091;28;20031;-83
2022/04/16 02:48:25;;;;;;;9.43;5.25;;;;;;;12.34;66.19;100628.69;4981205;28;20050;-82
2022/04/16 02:50:53;;;;;;;11.70;5.45;;;;;;;12.02;67.78;100638.56;4984662;28;20034;-82
2022/04/16 02:53:18;;;;;;;10.32;5.30;;;;;;;11.96;68.69;100645.38;4977184;28;20035;-82
2022/04/16 02:55:46;;;;;;;9.40;5.55;;;;;;;11.90;69.00;100636.22;4964499;29;20027;-82
2022/04/16 02:58:13;;;;;;;13.00;5.63;;;;;;;11.72;69.89;100637.41;4963651;29;20050;-82
2022/04/16 03:00:39;;;;;;;11.73;5.20;;;;;;;11.63;70.84;100641.88;4984891;28;20549;-83
2022/04/16 03:03:05;;;;;;;10.38;5.30;;;;;;;11.58;71.26;100638.03;4981043;28;20023;-81
2022/04/16 03:05:30;;;;;;;12.73;5.65;;;;;;;11.57;71.75;100639.84;4978871;28;20145;-82
2022/04/16 03:07:57;;;;;;;10.07;5.50;;;;;;;11.71;70.96;100635.75;4989127;28;20058;-84
2022/04/16 03:10:23;;;;;;;19.73;6.55;;;;;;;11.78;70.44;100640.22;4973098;28;20035;-83
2022/04/16 03:12:52;;;;;;;11.65;5.80;;;;;;;11.97;69.60;100630.25;4986632;28;20478;-81
2022/04/16 03:18:03;;;;;;;9.23;5.60;;;;;;;12.14;67.30;100623.91;4965578;29;20430;-83
2022/04/16 03:20:30;;;;;;;11.73;5.82;;;;;;;12.14;66.83;100626.56;4965385;28;20037;-82
2022/04/16 03:23:00;;;;;;;10.88;5.60;;;;;;;12.08;66.19;100617.44;4958643;29;20487;-82
2022/04/16 03:25:27;;;;;;;9.73;5.32;;;;;;;12.10;66.27;100620.75;4966239;28;20054;-81
2022/04/16 03:27:53;;;;;;;8.45;5.03;;;;;;;12.34;65.42;100619.88;4971454;28;20046;-81
2022/04/16 03:30:19;;;;;;;7.97;5.20;;;;;;;12.45;64.13;100614.19;4971822;28;20109;-81
2022/04/16 03:32:49;;;;;;;10.68;5.35;;;;;;;12.38;64.15;100618.53;4968846;29;20055;-81
2022/04/16 03:35:19;;;;;;;9.27;4.85;;;;;;;12.52;63.02;100607.19;4977452;28;20057;-81
2022/04/16 03:37:45;;;;;;;10.00;5.03;;;;;;;12.56;62.47;100611.13;4990489;28;20035;-83
2022/04/16 03:40:12;;;;;;;10.23;5.20;;;;;;;12.60;62.11;100606.31;4990645;28;20090;-82
2022/04/16 03:42:59;;;;;;;10.73;4.28;;;;;;;12.53;61.92;100603.50;4973150;28;20066;-82
2022/04/16 03:45:30;;;;;;;9.35;5.05;;;;;;;12.40;61.78;100603.22;4990655;28;20041;-81
2022/04/16 03:47:57;;;;;;;6.10;4.20;;;;;;;12.17;62.69;100600.47;4989912;28;20035;-82
2022/04/16 03:50:25;;;;;;;10.15;4.97;;;;;;;12.06;63.17;100602.69;4972722;28;20049;-80
2022/04/16 03:52:53;;;;;;;8.20;4.15;;;;;;;12.18;62.60;100602.16;4982865;28;20031;-80
2022/04/16 04:00:51;;;;;;;11.88;4.53;;;;;;;11.66;64.07;100606.19;4950993;29;20099;-82
2022/04/16 04:03:18;;;;;;;8.75;4.65;;;;;;;11.50;65.12;100608.84;4949777;29;20040;-80
2022/04/16 04:05:45;;;;;;;7.60;4.72;;;;;;;11.34;65.69;100618.44;4975421;28;20050;-81
2022/04/16 04:08:11;;;;;;;8.60;5.15;;;;;;;11.22;66.71;100618.94;4976721;28;20031;-82
2022/04/16 04:10:37;;;;;;;10.75;5.32;;;;;;;11.21;66.81;100618.09;4956223;29;20043;-82
2022/04/16 04:13:04;;;;;;;9.45;4.70;;;;;;;11.20;66.79;100615.63;4962454;28;20033;-81
2022/04/16 04:15:30;;;;;;;10.27;5.07;;;;;;;11.32;66.08;100624.94;4982922;28;20035;-82
2022/04/16 04:17:56;;;;;;;7.60;5.13;;;;;;;11.56;64.96;100626.78;4956846;29;20062;-84
2022/04/16 04:20:23;;;;;;;11.30;4.80;;;;;;;11.58;64.63;100630.91;4957217;29;20035;-81
2022/04/16 04:22:49;;;;;;;8.75;4.45;;;;;;;11.59;64.46;100627.28;4969852;29;20023;-82
2022/04/16 04:25:15;;;;;;;8.75;4.50;;;;;;;11.53;64.51;100635.91;4974748;29;20063;-81
2022/04/16 04:27:40;;;;;;;6.40;4.22;;;;;;;11.84;63.35;100631.59;4973496;29;20090;-81
2022/04/16 04:30:06;;;;;;;13.40;4.47;;;;;;;11.61;63.31;100635.88;4987763;28;20486;-82
2022/04/16 04:32:32;;;;;;;9.40;4.40;;;;;;;11.83;62.07;100634.44;4990931;28;20038;-82
2022/04/16 04:34:58;;;;;;;9.65;4.32;;;;;;;11.66;62.53;100638.06;4980601;28;20039;-81
2022/04/16 04:37:24;;;;;;;6.80;3.83;;;;;;;11.78;62.21;100642.88;4984998;28;20047;-81
2022/04/16 04:39:50;;;;;;;6.07;3.90;;;;;;;11.79;62.51;100644.56;4974093;28;20031;-81
2022/04/16 04:42:23;;;;;;;7.65;4.20;;;;;;;12.11;61.52;100642.84;4972716;28;20039;-82
2022/04/16 04:44:50;;;;;;;9.85;4.05;;;;;;;12.15;61.07;100638.84;4987168;28;20024;-82
2022/04/16 04:47:16;;;;;;;7.07;4.25;;;;;;;12.05;61.01;100643.53;4981474;28;20030;-80
2022/04/16 04:49:42;;;;;;;9.85;4.53;;;;;;;11.86;61.96;100640.22;4989804;28;20066;-83
2022/04/16 04:52:07;;;;;;;8.27;4.35;;;;;;;11.46;63.40;100640.22;4978332;28;20039;-84
2022/04/16 04:54:33;;;;;;;6.68;4.57;;;;;;;11.30;64.06;100643.66;4972491;28;20064;-81
2022/04/16 04:56:59;;;;;;;7.28;4.38;;;;;;;11.22;64.63;100638.34;4978375;28;20078;-82
2022/04/16 04:59:24;;;;;;;8.75;4.78;;;;;;;11.40;63.44;100643.53;4992229;28;20058;-81
2022/04/16 05:01:53;;;;;;;21.55;4.93;;;;;;;11.63;61.61;100646.34;4993251;28;20026;-81
2022/04/16 05:04:18;;;;;;;9.82;4.32;;;;;;;11.41;62.28;100653.13;4978166;28;20046;-81
2022/04/16 05:06:44;;;;;;;12.68;4.20;;;;;;;11.35;62.22;100651.13;4976764;29;20040;-82
2022/04/16 05:09:10;;;;;;;6.85;3.72;;;;;;;11.35;62.34;100651.13;4987295;28;20031;-84
2022/04/16 05:11:36;;;;;;;9.95;3.88;;;;;;;11.52;61.51;100652.81;4997186;28;20043;-82
2022/04/16 05:14:02;;;;;;;6.40;4.30;;;;;;;11.59;61.49;100663.59;4989329;28;20041;-82
2022/04/16 05:16:31;;;;;;;6.75;3.90;;;;;;;11.65;61.04;100666.41;4988157;28;20038;-82
2022/04/16 05:18:56;;;;;;;13.60;3.70;;;;;;;11.82;60.30;100664.63;4969359;29;20040;-82
2022/04/16 05:21:22;;;;;;;11.32;4.32;;;;;;;11.91;59.83;100668.94;4978071;28;20489;-82
2022/04/16 05:23:48;;;;;;;6.57;4.22;;;;;;;12.15;59.05;100668.09;4975435;28;20075;-82
2022/04/16 05:26:13;;;;;;;22.30;4.05;;;;;;;12.43;58.25;100666.69;4970681;29;20042;-82
2022/04/16 05:28:39;;;;;;;13.07;4.13;;;;;;;13.01;55.81;100671.63;4954365;29;20070;-83
2022/04/16 05:31:06;;;;;;;9.73;4.25;;;;;;;13.15;54.90;100675.41;4972325;28;20043;-86
2022/04/16 05:36:21;;;;;;;18.88;4.35;;;;;;;13.70;54.02;100676.03;4968540;28;20069;-85
2022/04/16 05:38:47;;;;;;;12.18;3.33;;;;;;;13.48;53.50;100684.84;4991364;28;20405;-85
2022/04/16 05:41:21;;;;;;;7.53;3.95;;;;;;;13.82;52.54;100685.25;4975490;28;20464;-86
2022/04/16 05:43:48;;;;;;;5.85;2.65;;;;;;;13.96;51.84;100684.47;4993156;28;20042;-86
2022/04/16 05:46:15;;;;;;;10.60;3.83;;;;;;;14.52;49.85;100687.59;4994620;28;20049;-86
2022/04/16 05:49:05;;;;;;;8.82;3.33;;;;;;;15.83;47.88;100688.34;4975067;28;20044;-85
2022/04/16 05:51:34;;;;;;;8.85;3.60;;;;;;;15.56;46.32;100689.94;4956876;29;20083;-85
2022/04/16 05:54:03;;;;;;;11.07;3.33;;;;;;;16.14;44.94;100701.38;4923207;29;20112;-86
2022/04/16 05:56:30;;;;;;;8.40;3.15;;;;;;;16.03;44.52;100698.22;4934644;29;20482;-87
2022/04/16 05:58:56;;;;;;;8.25;3.72;;;;;;;16.19;44.60;100690.91;4956177;29;20108;-86
2022/04/16 06:01:22;;;;;;;8.65;3.03;;;;;;;17.33;42.14;100698.38;4959149;29;20043;-88
2022/04/16 06:03:51;;;;;;;8.57;3.30;;;;;;;17.00;42.59;100699.03;4940585;29;20043;-87
2022/04/16 06:06:16;;;;;;;7.10;3.65;;;;;;;16.91;43.28;100700.25;4953874;29;20044;-87
2022/04/16 06:08:44;;;;;;;13.50;3.75;;;;;;;16.99;43.80;100700.09;4937235;29;20075;-88
2022/04/16 06:11:12;;;;;;;14.07;4.18;;;;;;;17.93;41.78;100698.28;4954100;29;20055;-86
2022/04/16 06:13:38;;;;;;;10.57;4.00;;;;;;;17.99;42.39;100700.16;4939226;29;20055;-85
2022/04/16 06:16:06;;;;;;;7.70;3.50;;;;;;;18.71;41.90;100696.59;4936822;29;20558;-89
2022/04/16 06:18:40;;;;;;;7.20;3.83;;;;;;;18.54;41.43;100692.69;4939367;29;20035;-90
2022/04/16 06:21:06;;;;;;;9.32;3.47;;;;;;;19.16;41.33;100696.66;4952963;29;20028;-87
2022/04/16 06:23:35;;;;;;;8.70;4.20;;;;;;;18.87;41.31;100696.13;4934632;29;20059;-85
2022/04/16 06:26:01;;;;;;;8.32;4.35;;;;;;;18.68;41.80;100693.50;4947113;29;20036;-87
2022/04/16 06:28:26;;;;;;;7.13;4.22;;;;;;;19.01;41.43;100696.91;4947106;29;20046;-85
2022/04/16 06:30:53;;;;;;;11.80;4.13;;;;;;;20.20;40.38;100695.13;4947704;29;20052;-83
2022/04/16 06:33:21;;;;;;;9.13;4.35;;;;;;;20.09;40.12;100693.97;4947447;29;20122;-83
2022/04/16 06:35:50;;;;;;;16.65;4.63;;;;;;;20.29;39.40;100693.00;4952790;29;20054;-83
2022/04/16 06:38:16;;;;;;;13.15;4.68;;;;;;;19.47;40.93;100688.66;4952889;28;20042;-85
2022/04/16 06:40:44;;;;;;;11.25;4.95;;;;;;;19.88;40.84;100691.69;4958744;28;20036;-85
2022/04/16 06:43:11;;;;;;;8.85;4.72;;;;;;;20.04;41.04;100693.84;4964390;28;20036;-84
2022/04/16 06:45:38;;;;;;;10.45;4.90;;;;;;;20.30;40.55;100684.72;4943138;29;20042;-84
2022/04/16 06:48:04;;;;;;;11.43;5.00;;;;;;;20.00;41.11;100676.47;4959337;29;20071;-85
2022/04/16 06:50:29;;;;;;;11.15;4.60;;;;;;;19.81;42.62;100668.56;4960293;29;20039;-83
2022/04/16 06:52:55;;;;;;;7.85;4.70;;;;;;;20.62;40.64;100682.72;4957467;29;20042;-86
2022/04/16 06:55:21;;;;;;;9.80;5.15;;;;;;;19.58;42.68;100675.34;4939739;29;20348;-83
2022/04/16 06:57:47;;;;;;;10.55;5.45;;;;;;;19.13;44.56;100664.81;4948450;29;20047;-83
2022/04/16 07:00:13;;;;;;;16.63;5.78;;;;;;;19.65;43.14;100672.63;4945785;29;20052;-84
2022/04/16 07:02:39;;;;;;;12.02;5.53;;;;;;;20.76;40.65;100676.16;4956292;29;20043;-87
2022/04/16 07:05:08;;;;;;;15.68;6.07;;;;;;;20.58;41.61;100676.97;4949519;29;20043;-85
2022/04/16 07:07:33;;;;;;;12.18;6.15;;;;;;;22.32;38.25;100679.53;4962521;29;20050;-84
2022/04/16 07:09:59;;;;;;;15.73;5.85;;;;;;;22.17;38.81;100671.88;4964367;28;20039;-85
2022/04/16 07:12:25;;;;;;;16.20;6.97;;;;;;;21.56;39.36;100668.72;4953606;29;20051;-85
2022/04/16 07:14:54;;;;;;;14.75;6.88;;;;;;;22.55;37.80;100667.88;4984928;28;20032;-84
2022/04/16 07:17:20;;;;;;;15.90;7.57;;;;;;;22.33;37.06;100674.97;4981453;28;20050;-86
2022/04/16 07:19:50;;;;;;;15.52;7.70;;;;;;;23.64;35.04;100672.28;4985834;28;20486;-84
2022/04/16 07:24:57;;;;;;;13.10;6.63;;;;;;;23.75;34.50;100679.53;5062549;23;20063;-82
2022/04/16 07:27:22;;;;;;;14.75;6.60;;;;;;;23.39;36.13;100685.31;4987038;28;20031;-83
2022/04/16 07:29:51;;;;;;;17.55;7.05;;;;;;;23.12;36.84;100691.31;4976197;28;20023;-87
2022/04/16 07:32:20;;;;;;;;;;;;;;;23.50;36.18;100690.69;4974437;28;20044;-87
2022/04/16 07:34:45;;;;;;;12.17;7.20;;;;;;;22.86;37.05;100691.84;4984198;28;19941;-83
2022/04/16 07:37:12;;;;;;;11.15;7.07;;;;;;;23.70;35.87;100692.94;4966608;28;20286;-87
2022/04/16 07:39:37;;;;;;;15.57;7.90;;;;;;;23.90;34.08;100693.31;4973587;28;20031;-86
2022/04/16 07:42:13;;;;;;;16.85;7.20;;;;;;;23.96;34.72;100686.91;4983513;23;20047;-84
2022/04/16 07:44:38;;;;;;;16.33;7.65;;;;;;;24.00;34.68;100690.75;4967932;29;20043;-86
2022/04/16 07:47:04;;;;;;;11.38;7.45;;;;;;;23.59;34.90;100691.16;4965646;29;20053;-85
2022/04/16 07:49:30;;;;;;;11.68;7.15;;;;;;;23.76;34.69;100697.41;4949792;29;20063;-85
2022/04/16 07:51:56;;;;;;;11.98;7.25;;;;;;;23.85;34.50;100701.34;4955946;29;20034;-83
2022/04/16 07:54:21;;;;;;;17.17;7.90;;;;;;;23.82;34.57;100698.31;4954158;29;20035;-85
2022/04/16 07:56:53;;;;;;;13.73;7.60;;;;;;;23.66;35.20;100692.59;4961934;29;20070;-85
2022/04/16 07:59:18;;;;;;;11.00;6.93;;;;;;;23.06;36.47;100697.69;4960908;29;20039;-85
2022/04/16 08:01:50;;;;;;;12.85;7.25;;;;;;;22.97;37.21;100699.09;4953024;29;20367;-83
2022/04/16 08:04:22;;;;;;;16.05;6.90;;;;;;;23.70;36.84;100687.53;4950563;29;20031;-85
2022/04/16 08:06:47;;;;;;;19.00;6.22;;;;;;;25.06;33.79;100691.50;4950668;29;20035;-87
2022/04/16 08:09:14;;;;;;;18.50;6.55;;;;;;;25.84;32.39;100699.16;4947777;29;20031;-84
2022/04/16 08:11:40;;;;;;;20.40;6.68;;;;;;;25.42;33.57;100695.47;4965135;29;20031;-84
2022/04/16 08:14:06;;;;;;;14.90;6.80;;;;;;;25.95;32.64;100692.72;4968360;29;20031;-84
2022/04/16 08:16:42;;;;;;;9.88;6.50;;;;;;;26.00;32.25;100686.53;4953239;29;20059;-84
2022/04/16 08:19:08;;;;;;;16.52;6.43;;;;;;;26.70;29.80;100691.66;4946133;29;20055;-85
2022/04/16 08:21:34;;;;;;;12.85;5.82;;;;;;;25.89;31.17;100699.19;4941698;29;20506;-85
2022/04/16 08:24:44;;;;;;;9.32;5.10;;;;;;;25.90;30.30;100689.16;4953404;29;20035;-85
2022/04/16 08:26:49;;;;;;;9.85;5.18;;;;;;;25.20;29.86;100690.06;4936036;29;20088;-85
2022/04/16 08:29:15;;;;;;;13.30;5.20;;;;;;;26.88;27.60;100688.50;4960336;29;20024;-88
2022/04/16 08:31:40;;;;;;;14.00;5.38;;;;;;;26.82;27.67;100689.56;4950118;29;20098;-86
2022/04/16 08:34:09;;;;;;;8.80;4.40;;;;;;;26.32;26.89;100689.22;4954247;29;20032;-88
2022/04/16 08:36:37;;;;;;;6.57;3.60;;;;;;;25.35;27.69;100687.53;4958185;29;20073;-84
2022/04/16 08:39:06;;;;;;;12.07;4.10;;;;;;;25.36;27.88;100691.03;4930506;29;20091;-83
2022/04/16 08:41:33;;;;;;;7.97;3.97;;;;;;;24.51;29.32;100672.59;4940356;29;20024;-84
2022/04/16 08:43:59;;;;;;;11.57;4.43;;;;;;;25.25;28.56;100678.47;4939162;29;20151;-83
2022/04/16 08:46:28;;;;;;;9.05;4.07;;;;;;;25.11;28.63;100683.44;4953431;29;20042;-82
2022/04/16 08:48:55;;;;;;;8.25;4.20;;;;;;;25.00;28.67;100693.34;4960988;29;20046;-85
2022/04/16 08:51:20;;;;;;;7.20;4.03;;;;;;;25.29;28.63;100682.31;4946130;29;20066;-82
2022/04/16 08:53:46;;;;;;;9.15;4.32;;;;;;;25.38;28.83;100688.91;4948288;29;20036;-86
2022/04/16 08:56:14;;;;;;;7.50;3.75;;;;;;;25.14;29.23;100681.06;4952587;29;20062;-82
2022/04/16 08:58:40;;;;;;;7.95;3.83;;;;;;;24.55;30.93;100690.00;4964388;29;20074;-84
2022/04/16 09:01:07;;;;;;;18.60;4.32;;;;;;;24.62;31.49;100686.06;4930890;29;20036;-83
2022/04/16 09:03:38;;;;;;;8.95;3.50;;;;;;;24.95;31.12;100689.78;4928960;29;20056;-85
2022/04/16 09:06:05;;;;;;;5.65;3.20;;;;;;;25.44;27.53;100687.88;4936990;29;20062;-83
2022/04/16 09:08:32;;;;;;;6.43;3.58;;;;;;;25.30;27.81;100687.47;4953815;29;20016;-84
2022/04/16 09:11:31;;;;;;;6.28;3.67;;;;;;;25.71;28.03;100686.00;4959045;29;20098;-85
2022/04/16 09:13:57;;;;;;;7.82;3.35;;;;;;;25.48;29.19;100678.97;4956516;29;20028;-82
2022/04/16 09:16:38;;;;;;;5.53;2.30;;;;;;;26.15;26.30;100684.75;4941970;29;20082;-89
2022/04/16 09:19:17;;;;;;;9.13;3.40;;;;;;;25.80;26.01;100687.19;4958304;29;20121;-81
2022/04/16 09:21:48;;;;;;;7.80;2.70;;;;;;;25.82;27.24;100690.44;4924276;29;20043;-81
2022/04/16 09:24:13;;;;;;;9.85;3.97;;;;;;;25.31;27.37;100688.28;4962393;29;20043;-87
2022/04/16 09:26:51;;;;;;;11.35;5.55;;;;;;;25.31;28.00;100685.56;4940018;29;20080;-85
2022/04/16 09:29:24;;;;;;;17.40;6.50;;;;;;;25.93;28.62;100686.75;4952743;29;20099;-87
2022/04/16 09:32:44;;;;;;;13.63;4.72;;;;;;;26.01;29.66;100682.75;4951923;29;20043;-89
2022/04/16 09:35:36;;;;;;;11.95;6.03;;;;;;;26.27;30.37;100675.63;4878652;29;20052;-89
2022/04/16 09:38:12;;;;;;;15.10;6.25;;;;;;;25.16;32.37;100684.31;4892034;29;20432;-85
2022/04/16 09:40:49;;;;;;;17.65;8.50;;;;;;;25.22;31.55;100681.69;4875242;29;20496;-87
2022/04/16 09:43:19;;;;;;;13.25;7.68;;;;;;;25.39;31.96;100661.50;4877830;29;20048;-85
2022/04/16 09:45:50;;;;;;;15.02;6.03;;;;;;;25.29;34.97;100666.03;4865677;29;20168;-89
2022/04/16 09:48:25;;;;;;;16.60;7.50;;;;;;;25.90;30.29;100660.09;4895770;29;20077;-86
2022/04/16 09:50:53;;;;;;;17.75;6.93;;;;;;;25.70;31.37;100662.66;4877752;29;20044;-82
2022/04/16 09:53:21;;;;;;;15.27;7.15;;;;;;;26.02;30.62;100658.03;4891778;29;20249;-84
2022/04/16 09:55:54;;;;;;;13.40;7.90;;;;;;;26.77;29.40;100659.59;4900929;29;20041;-84
2022/04/16 09:58:35;;;;;;;16.15;8.70;;;;;;;26.28;30.32;100650.09;4903098;29;20063;-83
2022/04/16 10:01:05;;;;;;;16.55;8.57;;;;;;;25.85;29.53;100632.94;4902136;29;20049;-83
2022/04/16 10:03:35;;;;;;;17.08;8.13;;;;;;;26.20;30.00;100619.63;4908952;29;20052;-84
2022/04/16 10:06:01;;;;;;;22.95;8.30;;;;;;;26.63;29.02;100631.25;4904331;29;20060;-82
2022/04/16 10:08:27;;;;;;;16.83;9.18;;;;;;;26.78;28.24;100631.31;4916344;29;20041;-84
2022/04/16 10:10:57;;;;;;;31.55;9.10;;;;;;;26.22;29.23;100626.69;4907363;29;20108;-81
2022/04/16 10:13:24;;;;;;;19.33;9.60;;;;;;;26.29;29.63;100616.38;4939135;29;20110;-82
2022/04/16 10:16:12;;;;;;;15.82;9.57;;;;;;;27.16;29.09;100630.94;4946305;29;20043;-84
2022/04/16 10:18:38;;;;;;;18.08;8.60;;;;;;;27.57;27.35;100634.56;5003315;23;20058;-81
2022/04/16 10:21:04;;;;;;;16.40;8.60;;;;;;;27.58;27.31;100627.19;4978488;28;20106;-83
2022/04/16 10:23:41;;;;;;;22.33;11.30;;;;;;;27.34;27.91;100626.88;4977775;28;20031;-82
2022/04/16 10:26:18;;;;;;;20.67;9.52;;;;;;;27.60;27.81;100625.03;4974662;28;20038;-84
2022/04/16 10:28:55;;;;;;;27.95;11.85;;;;;;;27.43;27.52;100629.88;4956759;28;20039;-85
2022/04/16 10:31:33;;;;;;;26.17;10.23;;;;;;;26.64;28.45;100633.72;4976749;28;20055;-87
2022/04/16 10:34:08;;;;;;;21.40;10.60;;;;;;;26.49;28.53;100616.50;4996750;28;20063;-83
2022/04/16 10:37:22;;;;;;;24.75;11.60;;;;;;;26.81;28.41;100621.81;4982830;28;20069;-89
2022/04/16 10:39:59;;;;;;;27.15;13.10;;;;;;;26.44;28.85;100624.63;4938578;29;20075;-88
2022/04/16 10:42:36;;;;;;;34.58;11.73;;;;;;;26.63;28.78;100617.66;5018509;23;20022;-83
2022/04/16 10:45:11;;;;;;;27.25;11.65;;;;;;;26.20;28.43;100621.50;4925558;29;20054;-86
2022/04/16 10:47:41;;;;;;;26.00;10.77;;;;;;;26.86;27.83;100614.50;4926415;29;20099;-85
2022/04/16 10:50:13;;;;;;;21.05;10.93;;;;;;;27.51;27.11;100632.13;4907261;29;20067;-83
2022/04/16 10:52:39;;;;;;;25.90;11.88;;;;;;;27.53;26.80;100621.75;4923808;29;20036;-84
2022/04/16 10:55:08;;;;;;;22.52;10.98;;;;;;;27.10;27.73;100631.19;4908463;29;20052;-83
2022/04/16 10:57:34;;;;;;;24.40;12.32;;;;;;;27.38;27.13;100621.69;4911171;29;20051;-85
2022/04/16 11:00:14;;;;;;;26.42;11.50;;;;;;;27.43;27.69;100619.00;4928443;29;20040;-89
2022/04/16 11:02:43;;;;;;;24.92;11.25;;;;;;;27.45;27.67;100616.84;4902551;29;20071;-87
2022/04/16 11:05:46;;;;;;;27.08;12.93;;;;;;;27.65;27.68;100625.03;4970503;23;20078;-83
2022/04/16 11:08:14;;;;;;;26.90;12.57;;;;;;;27.53;27.64;100603.53;4967105;29;20035;-86
2022/04/16 11:10:57;;;;;;;25.27;11.43;;;;;;;28.15;26.97;100602.38;4947219;29;20544;-86
2022/04/16 11:13:23;;;;;;;23.10;11.45;;;;;;;27.83;26.31;100591.78;4946300;29;20071;-87
2022/04/16 11:15:49;;;;;;;22.98;11.18;;;;;;;27.90;27.54;100597.78;4950127;29;20474;-88
2022/04/16 11:18:21;;;;;;;23.27;11.50;;;;;;;27.76;27.24;100584.97;4968476;29;20059;-90
2022/04/16 11:20:58;;;;;;;26.58;11.88;;;;;;;28.58;26.32;100592.72;4965117;29;20035;-88
2022/04/16 11:23:26;;;;;;;28.33;12.18;;;;;;;28.55;26.97;100594.09;4950365;29;20038;-91
2022/04/16 11:34:17;;;;;;;25.10;10.80;;;;;;;27.45;29.50;100571.38;4965533;29;20032;-90
2022/04/16 11:36:52;;;;;;;24.13;10.43;;;;;;;27.21;29.97;100568.34;4931431;29;20106;-91
2022/04/16 11:39:26;;;;;;;19.23;10.63;;;;;;;27.49;29.48;100558.84;4963959;29;20039;-91
2022/04/16 11:42:10;;;;;;;21.70;10.77;;;;;;;27.55;29.43;100551.50;4969469;29;20031;-91
2022/04/16 11:44:40;;;;;;;19.67;10.38;;;;;;;27.51;30.66;100551.22;4951108;29;20046;-89
2022/04/16 11:47:15;;;;;;;21.95;11.13;;;;;;;26.36;31.70;100559.91;4933916;29;20046;-89
2022/04/16 11:49:49;;;;;;;26.20;11.82;;;;;;;25.73;32.59;100544.56;4941732;29;20035;-89
2022/04/16 11:52:21;;;;;;;16.42;9.38;;;;;;;25.22;33.76;100551.47;4963215;29;20031;-88